Time;durP1;ratioP1;P1;durP2;ratioP2;P2;SDS_P1;SDS_P2;PMS_P1;PMS_P2;Temp;Humidity;BMP_temperature;BMP_pressure;BME280_temperature;BME280_humidity;BME280_pressure;Samples;Min_cycle;Max_cycle;Signal;HPM_P1;HPM_P2
2023/06/12 00:02:07;;;;;;;9.93;7.87;;;22.30;99.90;;;;;;5055541;28;20387;-51
2023/06/12 00:04:33;;;;;;;9.97;8.50;;;22.30;99.90;;;;;;5073976;28;20032;-51
2023/06/12 00:07:01;;;;;;;11.17;10.00;;;22.20;99.90;;;;;;5073559;28;20086;-50
2023/06/12 00:09:28;;;;;;;10.68;9.52;;;22.20;99.90;;;;;;5073692;28;20282;-53
2023/06/12 00:11:54;;;;;;;9.85;8.77;;;22.20;99.90;;;;;;5073924;28;20039;-50
2023/06/12 00:14:20;;;;;;;10.98;9.88;;;22.20;99.90;;;;;;5089666;28;20032;-50
2023/06/12 00:16:46;;;;;;;12.30;10.40;;;22.20;99.90;;;;;;5089100;28;20060;-51
2023/06/12 00:19:11;;;;;;;10.07;8.53;;;22.20;99.90;;;;;;5073636;28;20056;-52
2023/06/12 00:21:38;;;;;;;9.97;9.07;;;22.20;99.90;;;;;;5073661;28;20431;-51
2023/06/12 00:24:08;;;;;;;10.95;9.07;;;22.20;99.90;;;;;;5073710;28;20062;-51
2023/06/12 00:26:38;;;;;;;10.40;8.80;;;22.20;99.90;;;;;;5073729;28;20047;-52
2023/06/12 00:29:04;;;;;;;10.70;9.38;;;22.20;99.90;;;;;;5088868;28;20036;-50
2023/06/12 00:31:30;;;;;;;10.70;8.77;;;22.20;99.90;;;;;;5055211;28;20036;-52
2023/06/12 00:33:56;;;;;;;9.40;8.38;;;22.10;99.90;;;;;;5072953;28;20028;-51
2023/06/12 00:36:22;;;;;;;9.13;8.17;;;22.10;99.90;;;;;;5088775;28;20101;-51
2023/06/12 00:38:48;;;;;;;9.23;8.32;;;22.10;99.90;;;;;;5055152;28;20094;-50
2023/06/12 00:41:15;;;;;;;;;;;22.10;99.90;;;;;;5070695;28;20042;-50
2023/06/12 00:43:41;;;;;;;9.35;8.45;;;22.00;99.90;;;;;;5089210;28;19908;-51
2023/06/12 00:46:07;;;;;;;9.07;7.43;;;22.00;99.90;;;;;;5088358;28;20446;-53
2023/06/12 00:48:33;;;;;;;7.80;7.07;;;22.00;99.90;;;;;;5072749;28;20036;-51
2023/06/12 00:50:59;;;;;;;8.85;7.13;;;22.00;99.90;;;;;;5073314;28;20275;-50
2023/06/12 00:53:26;;;;;;;7.50;6.80;;;22.00;99.90;;;;;;5055050;28;20115;-51
2023/06/12 00:55:53;;;;;;;8.38;6.90;;;22.00;99.90;;;;;;5094521;28;20020;-52
2023/06/12 00:58:20;;;;;;;7.50;6.32;;;22.00;99.90;;;;;;5093711;28;20115;-50
2023/06/12 01:00:48;;;;;;;8.27;5.47;;;22.00;99.90;;;;;;5063075;28;20115;-53
2023/06/12 01:03:14;;;;;;;8.85;6.30;;;22.00;99.90;;;;;;5055028;28;20029;-51
2023/06/12 01:05:45;;;;;;;7.07;6.35;;;22.00;99.90;;;;;;5038596;28;20028;-52
2023/06/12 01:08:49;;;;;;;6.78;6.15;;;22.00;99.90;;;;;;5055274;28;20027;-52
2023/06/12 01:11:17;;;;;;;7.97;6.18;;;21.90;99.90;;;;;;5011001;28;20026;-51
2023/06/12 01:13:43;;;;;;;7.28;6.45;;;21.70;99.90;;;;;;5061134;28;20483;-50
2023/06/12 01:16:09;;;;;;;8.68;6.30;;;21.60;99.90;;;;;;5055015;28;20049;-52
2023/06/12 01:18:35;;;;;;;8.13;6.73;;;21.70;99.90;;;;;;5073095;28;20074;-51
2023/06/12 01:21:07;;;;;;;9.50;6.00;;;21.80;99.90;;;;;;5055031;28;20028;-50
2023/06/12 01:23:37;;;;;;;7.18;5.88;;;21.90;99.90;;;;;;5072971;28;20039;-50
2023/06/12 01:26:37;;;;;;;6.32;5.35;;;21.90;99.90;;;;;;5054717;28;20178;-54
2023/06/12 01:29:35;;;;;;;8.52;5.65;;;21.80;99.80;;;;;;5072854;28;20036;-50
2023/06/12 01:32:11;;;;;;;6.38;5.78;;;21.90;99.90;;;;;;5050798;28;20025;-51
2023/06/12 01:34:41;;;;;;;7.20;6.13;;;21.80;99.40;;;;;;5071673;28;20035;-53
2023/06/12 01:37:44;;;;;;;8.05;6.75;;;21.80;99.90;;;;;;5070320;28;20505;-51
2023/06/12 01:40:17;;;;;;;7.00;6.32;;;21.80;99.90;;;;;;5047181;28;20510;-50
2023/06/12 01:42:45;;;;;;;7.60;6.45;;;21.80;99.90;;;;;;5054450;28;20066;-50
2023/06/12 01:45:10;;;;;;;8.65;7.57;;;21.70;99.90;;;;;;5037737;28;20044;-53
2023/06/12 01:47:44;;;;;;;8.45;7.15;;;21.70;99.90;;;;;;5054479;28;20124;-50
2023/06/12 01:50:13;;;;;;;9.38;7.38;;;21.60;99.90;;;;;;5083771;28;20397;-50
2023/06/12 01:52:40;;;;;;;8.48;7.47;;;21.50;99.90;;;;;;5067256;28;20052;-50
2023/06/12 01:55:07;;;;;;;7.28;6.40;;;21.40;99.90;;;;;;5053886;28;20135;-50
2023/06/12 01:57:38;;;;;;;9.65;6.80;;;21.40;99.90;;;;;;5056524;28;20043;-52
2023/06/12 02:00:05;;;;;;;6.63;5.90;;;21.40;99.90;;;;;;5074304;28;20039;-51
2023/06/12 02:02:46;;;;;;;6.22;5.63;;;21.40;99.90;;;;;;5112169;22;20045;-58
2023/06/12 02:05:15;;;;;;;7.20;5.97;;;21.40;99.90;;;;;;5067035;28;20025;-60
2023/06/12 02:07:41;;;;;;;7.00;6.30;;;21.40;99.90;;;;;;5052181;28;20029;-60
2023/06/12 02:10:07;;;;;;;10.20;6.22;;;21.40;99.90;;;;;;5034324;28;20025;-60
2023/06/12 02:12:34;;;;;;;6.32;5.70;;;21.40;99.90;;;;;;5056690;28;20029;-60
2023/06/12 02:15:01;;;;;;;5.82;5.32;;;21.30;99.90;;;;;;5062074;28;20127;-60
2023/06/12 02:17:28;;;;;;;6.20;5.60;;;21.30;99.90;;;;;;5070168;28;20036;-60
2023/06/12 02:19:56;;;;;;;7.85;5.57;;;21.30;99.90;;;;;;5070649;28;20119;-60
2023/06/12 02:22:22;;;;;;;6.20;5.40;;;21.30;99.90;;;;;;5070757;28;20055;-61
2023/06/12 02:24:48;;;;;;;8.25;6.82;;;21.30;99.90;;;;;;5070547;28;20025;-61
2023/06/12 02:27:14;;;;;;;8.05;6.32;;;21.30;99.90;;;;;;5063141;28;20017;-61
2023/06/12 02:29:40;;;;;;;6.47;5.30;;;21.30;99.90;;;;;;5049916;28;20151;-61
2023/06/12 02:32:06;;;;;;;9.27;6.20;;;21.20;99.90;;;;;;5083638;28;20079;-61
2023/06/12 02:34:33;;;;;;;15.18;6.85;;;21.20;99.90;;;;;;5050074;28;20128;-61
2023/06/12 02:36:59;;;;;;;9.90;6.70;;;21.20;99.90;;;;;;5049897;28;20510;-61
2023/06/12 02:39:27;;;;;;;9.63;7.00;;;21.20;99.90;;;;;;5049608;28;20450;-61
2023/06/12 02:41:53;;;;;;;7.68;6.93;;;21.20;99.90;;;;;;5050099;28;20056;-61
2023/06/12 02:44:20;;;;;;;9.30;6.40;;;21.20;99.90;;;;;;5049966;28;20052;-60
2023/06/12 02:46:57;;;;;;;;;;;21.20;99.90;;;;;;5067151;28;20116;-61
2023/06/12 02:49:27;;;;;;;;;;;21.20;99.90;;;;;;5050066;28;19908;-61
2023/06/12 02:51:53;;;;;;;11.68;7.38;;;21.10;99.90;;;;;;5044229;28;19913;-61
2023/06/12 02:54:21;;;;;;;10.10;7.50;;;21.10;99.90;;;;;;5049965;28;20031;-61
2023/06/12 02:56:47;;;;;;;8.93;7.35;;;21.00;99.90;;;;;;5050610;28;20068;-61
2023/06/12 02:59:17;;;;;;;9.35;8.45;;;21.00;99.90;;;;;;5049965;28;20026;-60
2023/06/12 03:01:43;;;;;;;10.18;8.55;;;20.90;99.90;;;;;;5051124;28;20060;-59
2023/06/12 03:04:20;;;;;;;14.90;9.70;;;20.80;99.90;;;;;;5073190;28;20058;-61
2023/06/12 03:06:53;;;;;;;9.52;8.38;;;20.80;99.90;;;;;;5090928;28;20055;-60
2023/06/12 03:09:21;;;;;;;14.77;10.60;;;20.70;99.90;;;;;;5091314;28;20532;-61
2023/06/12 03:11:49;;;;;;;16.85;10.98;;;20.80;99.90;;;;;;5091071;28;20055;-61
2023/06/12 03:14:16;;;;;;;10.57;9.48;;;20.80;99.90;;;;;;5071550;28;20440;-59
2023/06/12 03:16:42;;;;;;;15.55;11.60;;;20.80;99.90;;;;;;5062706;28;20032;-59
2023/06/12 03:19:08;;;;;;;14.90;11.35;;;20.80;99.90;;;;;;5093760;28;20169;-59
2023/06/12 03:21:35;;;;;;;19.63;11.70;;;20.80;99.90;;;;;;5066004;28;20109;-59
2023/06/12 03:24:01;;;;;;;13.20;11.82;;;20.80;99.90;;;;;;5056765;28;20021;-62
2023/06/12 03:26:30;;;;;;;13.15;11.82;;;20.70;99.90;;;;;;5053026;28;20407;-59
2023/06/12 03:28:56;;;;;;;14.07;11.85;;;20.70;99.90;;;;;;5065505;28;20509;-60
2023/06/12 03:31:26;;;;;;;12.57;11.27;;;20.70;99.90;;;;;;5106614;28;20028;-61
2023/06/12 03:33:56;;;;;;;12.52;11.23;;;20.70;99.90;;;;;;5089778;28;20048;-61
2023/06/12 03:36:25;;;;;;;12.68;10.75;;;20.60;99.90;;;;;;5089230;28;20508;-58
2023/06/12 03:38:52;;;;;;;15.93;13.75;;;20.60;99.90;;;;;;5073029;28;20482;-61
2023/06/12 03:41:20;;;;;;;;;;;20.60;99.90;;;;;;5106977;28;20482;-60
2023/06/12 03:43:46;;;;;;;16.92;12.40;;;20.50;99.90;;;;;;5072577;28;19908;-60
2023/06/12 03:46:12;;;;;;;22.67;13.82;;;20.60;99.90;;;;;;5072478;28;20031;-60
2023/06/12 03:48:38;;;;;;;16.17;12.05;;;20.60;99.90;;;;;;5071608;28;20028;-59
2023/06/12 03:51:04;;;;;;;14.75;12.55;;;20.60;99.90;;;;;;5090948;28;20032;-56
2023/06/12 03:53:31;;;;;;;14.95;12.75;;;20.60;99.90;;;;;;5106398;28;20029;-59
2023/06/12 03:55:57;;;;;;;;;;;20.60;99.90;;;;;;5106633;28;20032;-61
2023/06/12 03:58:24;;;;;;;15.48;12.32;;;20.60;99.90;;;;;;5072844;28;19908;-60
2023/06/12 04:00:52;;;;;;;17.40;12.63;;;20.60;99.90;;;;;;5072620;28;20562;-61
2023/06/12 04:03:21;;;;;;;14.88;12.30;;;20.60;99.90;;;;;;5056158;28;20040;-60
2023/06/12 04:05:48;;;;;;;16.42;12.80;;;20.60;99.90;;;;;;5072702;28;20028;-59
2023/06/12 04:08:14;;;;;;;;;;;20.70;99.90;;;;;;5075330;28;20032;-60
2023/06/12 04:10:40;;;;;;;14.18;12.68;;;20.60;99.90;;;;;;5076487;28;19915;-60
2023/06/12 04:13:06;;;;;;;19.45;13.63;;;20.60;99.90;;;;;;5076611;28;20028;-60
2023/06/12 04:15:32;;;;;;;20.25;13.02;;;20.60;99.90;;;;;;5094669;28;20493;-61
2023/06/12 04:17:58;;;;;;;24.52;12.82;;;20.60;99.90;;;;;;5108959;28;20365;-60
2023/06/12 04:20:26;;;;;;;24.73;14.15;;;20.60;99.90;;;;;;5076404;28;20042;-57
2023/06/12 04:22:56;;;;;;;15.55;12.88;;;20.60;99.90;;;;;;5110071;28;20024;-61
2023/06/12 04:25:25;;;;;;;18.40;13.38;;;20.50;99.90;;;;;;5076033;28;20024;-60
2023/06/12 04:27:52;;;;;;;21.73;14.15;;;20.50;99.90;;;;;;5110045;28;20028;-61
2023/06/12 04:30:21;;;;;;;;;;;20.50;99.90;;;;;;5110733;28;20427;-61
2023/06/12 04:32:48;;;;;;;24.55;13.80;;;20.40;99.90;;;;;;5059968;28;20486;-59
2023/06/12 04:35:16;;;;;;;25.67;14.40;;;20.30;99.90;;;;;;5094123;28;20097;-59
2023/06/12 04:37:42;;;;;;;18.15;13.23;;;20.30;99.90;;;;;;5075988;28;20055;-60
2023/06/12 04:40:11;;;;;;;19.90;13.80;;;20.30;99.90;;;;;;5075955;28;20524;-60
2023/06/12 04:42:37;;;;;;;21.25;15.43;;;20.30;99.90;;;;;;5093964;28;20032;-60
2023/06/12 04:45:08;;;;;;;19.23;15.20;;;20.30;99.90;;;;;;5093844;28;20020;-56
2023/06/12 04:47:36;;;;;;;20.50;15.63;;;20.30;99.90;;;;;;5075962;28;20489;-60
2023/06/12 04:50:02;;;;;;;19.60;14.55;;;20.30;99.90;;;;;;5093802;28;20029;-60
2023/06/12 04:52:29;;;;;;;21.33;16.07;;;20.40;99.90;;;;;;5109534;28;20028;-60
2023/06/12 04:54:55;;;;;;;22.48;16.35;;;20.40;99.90;;;;;;5093657;28;20040;-57
2023/06/12 04:57:20;;;;;;;22.10;15.83;;;20.50;99.90;;;;;;5075596;28;20024;-60
2023/06/12 04:59:48;;;;;;;24.98;17.35;;;20.50;99.90;;;;;;5075787;28;20055;-61
2023/06/12 05:02:15;;;;;;;23.88;16.10;;;20.60;99.90;;;;;;5075321;28;20028;-60
2023/06/12 05:04:41;;;;;;;23.10;17.42;;;20.60;99.90;;;;;;5075215;28;20027;-60
2023/06/12 05:07:21;;;;;;;17.98;15.63;;;20.70;99.90;;;;;;5075399;28;20394;-60
2023/06/12 05:09:53;;;;;;;18.55;15.73;;;20.70;99.90;;;;;;5091423;28;20115;-60
2023/06/12 05:12:19;;;;;;;18.45;15.27;;;20.70;99.90;;;;;;5075371;28;20553;-58
2023/06/12 05:14:45;;;;;;;21.27;16.93;;;20.70;99.90;;;;;;5075112;28;20486;-59
2023/06/12 05:17:11;;;;;;;24.38;17.10;;;20.60;99.90;;;;;;5109002;28;20119;-61
2023/06/12 05:19:38;;;;;;;16.88;15.00;;;20.60;99.90;;;;;;5108813;28;20402;-60
2023/06/12 05:22:05;;;;;;;20.35;15.82;;;20.70;99.90;;;;;;5074959;28;20028;-60
2023/06/12 05:24:32;;;;;;;16.27;14.55;;;20.70;99.90;;;;;;5075022;28;20366;-61
2023/06/12 05:26:59;;;;;;;16.27;14.05;;;20.80;99.90;;;;;;5058313;28;20486;-60
2023/06/12 05:29:26;;;;;;;16.80;15.00;;;20.80;99.90;;;;;;5093196;28;20032;-61
2023/06/12 05:31:53;;;;;;;17.63;15.13;;;20.90;99.90;;;;;;5074896;28;20032;-59
2023/06/12 05:34:19;;;;;;;14.65;13.07;;;21.00;99.90;;;;;;5074945;28;20064;-60
2023/06/12 05:36:45;;;;;;;18.48;15.75;;;20.90;99.90;;;;;;5108622;28;20028;-61
2023/06/12 05:39:11;;;;;;;15.43;13.97;;;20.90;99.90;;;;;;5074859;28;20032;-59
2023/06/12 05:41:37;;;;;;;16.17;13.30;;;21.00;99.90;;;;;;5074907;28;20036;-61
2023/06/12 05:44:07;;;;;;;17.92;14.68;;;21.00;99.90;;;;;;5108628;28;20036;-61
2023/06/12 05:46:34;;;;;;;17.48;13.38;;;21.00;99.90;;;;;;5057685;28;20085;-59
2023/06/12 05:49:00;;;;;;;20.13;14.88;;;21.00;99.90;;;;;;5074607;28;20028;-59
2023/06/12 05:51:27;;;;;;;17.07;12.83;;;21.10;99.90;;;;;;5092824;28;20282;-61
2023/06/12 05:53:54;;;;;;;20.42;14.23;;;21.20;99.90;;;;;;5108475;28;20081;-61
2023/06/12 05:56:22;;;;;;;13.63;12.30;;;21.20;99.90;;;;;;5074360;28;20020;-61
2023/06/12 05:58:47;;;;;;;16.33;13.60;;;21.20;99.90;;;;;;5091249;28;20393;-60
2023/06/12 06:01:16;;;;;;;13.77;12.38;;;21.30;99.90;;;;;;5108189;28;20034;-61
2023/06/12 06:03:56;;;;;;;13.95;12.32;;;21.40;99.90;;;;;;5074298;28;20058;-61
2023/06/12 06:06:23;;;;;;;12.73;11.43;;;21.40;99.90;;;;;;5074191;28;20074;-61
2023/06/12 06:08:50;;;;;;;14.00;12.55;;;21.50;99.90;;;;;;5108211;28;20020;-61
2023/06/12 06:11:16;;;;;;;12.85;11.55;;;21.50;99.90;;;;;;5108083;28;20043;-61
2023/06/12 06:13:43;;;;;;;13.70;12.30;;;21.50;99.90;;;;;;5073966;28;20405;-61
2023/06/12 06:16:11;;;;;;;13.45;11.77;;;21.60;99.90;;;;;;5074266;28;20517;-59
2023/06/12 06:18:38;;;;;;;;;;;21.60;99.90;;;;;;5058180;28;20028;-60
2023/06/12 06:21:05;;;;;;;12.93;10.30;;;21.70;99.90;;;;;;5108122;28;20347;-60
2023/06/12 06:23:32;;;;;;;12.73;11.07;;;21.70;99.90;;;;;;5107695;28;20032;-61
2023/06/12 06:25:59;;;;;;;12.43;11.18;;;21.80;99.90;;;;;;5057281;28;20024;-61
2023/06/12 06:28:26;;;;;;;14.90;11.50;;;21.80;99.90;;;;;;5092144;28;20107;-61
2023/06/12 06:30:52;;;;;;;13.73;12.45;;;21.80;99.90;;;;;;5073413;28;20051;-60
2023/06/12 06:33:17;;;;;;;11.27;9.95;;;21.80;99.90;;;;;;5074046;28;20375;-58
2023/06/12 06:35:43;;;;;;;12.37;10.50;;;21.80;99.90;;;;;;5073743;28;20030;-61
2023/06/12 06:38:09;;;;;;;12.53;10.53;;;21.80;99.90;;;;;;5092001;28;20035;-60
2023/06/12 06:40:35;;;;;;;12.52;11.23;;;21.90;99.90;;;;;;5092023;28;20258;-60
2023/06/12 06:43:01;;;;;;;16.47;11.13;;;21.90;99.90;;;;;;5107450;28;20118;-60
2023/06/12 06:45:40;;;;;;;16.27;11.35;;;22.00;99.90;;;;;;5073655;28;20080;-61
2023/06/12 06:48:08;;;;;;;12.15;10.73;;;22.10;99.90;;;;;;5073815;28;20035;-61
2023/06/12 06:50:34;;;;;;;11.52;10.40;;;22.10;99.90;;;;;;5107418;28;20058;-61
2023/06/12 06:53:02;;;;;;;14.10;11.05;;;22.20;99.90;;;;;;5073628;28;20070;-61
2023/06/12 06:55:28;;;;;;;12.52;11.32;;;22.30;99.90;;;;;;5073524;28;20118;-61
2023/06/12 06:57:56;;;;;;;13.68;10.07;;;22.30;99.90;;;;;;5073679;28;20062;-59
2023/06/12 07:00:22;;;;;;;12.20;10.95;;;22.40;99.90;;;;;;5091713;28;20122;-60
2023/06/12 07:02:49;;;;;;;13.15;9.98;;;22.40;99.90;;;;;;5091645;28;20052;-60
2023/06/12 07:05:18;;;;;;;12.73;10.10;;;22.50;99.90;;;;;;5073371;28;20432;-61
2023/06/12 07:07:47;;;;;;;10.55;9.48;;;22.60;99.90;;;;;;5073489;28;20024;-61
2023/06/12 07:10:13;;;;;;;10.60;9.50;;;22.60;99.90;;;;;;5073485;28;20490;-60
2023/06/12 07:12:39;;;;;;;10.25;9.25;;;22.70;99.90;;;;;;5091501;28;20032;-60
2023/06/12 07:15:06;;;;;;;10.17;9.13;;;22.70;99.10;;;;;;5073285;28;20051;-61
2023/06/12 07:17:32;;;;;;;11.07;9.73;;;22.80;99.90;;;;;;5073382;28;20039;-61
2023/06/12 07:19:59;;;;;;;11.65;9.63;;;22.80;99.40;;;;;;5073323;28;20036;-58
2023/06/12 07:22:27;;;;;;;11.70;10.23;;;22.90;98.90;;;;;;5073183;28;20058;-60
2023/06/12 07:24:53;;;;;;;9.50;8.07;;;22.90;98.50;;;;;;5091251;28;20269;-61
2023/06/12 07:27:19;;;;;;;10.83;8.50;;;23.00;98.00;;;;;;5056707;28;20035;-61
2023/06/12 07:29:45;;;;;;;10.10;8.87;;;23.00;97.60;;;;;;5073328;28;20024;-61
2023/06/12 07:32:11;;;;;;;10.07;8.73;;;23.10;97.60;;;;;;5073182;28;20270;-61
2023/06/12 07:34:37;;;;;;;11.48;8.73;;;23.10;98.00;;;;;;5073215;28;20032;-61
2023/06/12 07:37:04;;;;;;;10.37;7.83;;;23.20;97.60;;;;;;5072945;28;20020;-61
2023/06/12 07:39:30;;;;;;;;;;;23.30;98.00;;;;;;5091813;28;20507;-61
2023/06/12 07:41:58;;;;;;;11.52;9.18;;;23.30;96.90;;;;;;5074688;28;19912;-61
2023/06/12 07:44:24;;;;;;;10.13;8.53;;;23.30;97.00;;;;;;5076932;28;20065;-61
2023/06/12 07:46:50;;;;;;;13.20;8.67;;;23.40;96.20;;;;;;5076725;28;20502;-61
2023/06/12 07:49:17;;;;;;;12.23;7.88;;;23.40;95.70;;;;;;5077060;28;20178;-61
2023/06/12 07:51:43;;;;;;;10.27;8.15;;;23.40;94.70;;;;;;5076660;28;20448;-61
2023/06/12 07:54:09;;;;;;;8.63;7.73;;;23.50;94.80;;;;;;5076780;28;20032;-61
2023/06/12 07:56:37;;;;;;;9.25;8.27;;;23.50;94.30;;;;;;5060130;28;20349;-59
2023/06/12 07:59:10;;;;;;;8.18;7.30;;;23.50;94.50;;;;;;5094924;28;20499;-61
2023/06/12 08:01:39;;;;;;;9.30;8.38;;;23.60;93.90;;;;;;5076298;28;20107;-61
2023/06/12 08:04:09;;;;;;;11.05;8.95;;;23.70;94.70;;;;;;5077086;28;20020;-63
2023/06/12 08:06:37;;;;;;;10.38;9.32;;;23.70;94.90;;;;;;5076612;28;20031;-63
2023/06/12 08:09:04;;;;;;;13.15;10.18;;;23.80;94.20;;;;;;5076516;28;20028;-63
2023/06/12 08:11:30;;;;;;;10.10;9.10;;;23.80;94.20;;;;;;5094762;28;20478;-63
2023/06/12 08:13:56;;;;;;;11.07;9.80;;;23.80;94.40;;;;;;5094548;28;20130;-63
2023/06/12 08:16:25;;;;;;;10.43;8.57;;;23.90;95.10;;;;;;5076087;28;20039;-63
2023/06/12 08:18:51;;;;;;;9.85;8.45;;;24.00;94.60;;;;;;5076246;28;20028;-63
2023/06/12 08:21:21;;;;;;;11.73;8.65;;;24.10;93.60;;;;;;5076294;28;20081;-63
2023/06/12 08:23:47;;;;;;;11.40;8.93;;;24.00;93.00;;;;;;5076081;28;20055;-63
2023/06/12 08:26:13;;;;;;;11.27;8.50;;;24.10;93.90;;;;;;5076194;28;20123;-60
2023/06/12 08:28:39;;;;;;;8.43;7.63;;;24.20;93.40;;;;;;5076164;28;20028;-62
2023/06/12 08:31:10;;;;;;;10.15;7.53;;;24.30;92.90;;;;;;5076061;28;20028;-61
2023/06/12 08:33:36;;;;;;;8.37;7.57;;;24.40;91.30;;;;;;5059233;28;20036;-63
2023/06/12 08:36:01;;;;;;;9.80;8.80;;;24.50;91.10;;;;;;5075811;28;20027;-62
2023/06/12 08:38:27;;;;;;;10.83;8.80;;;24.60;91.40;;;;;;5075982;28;20055;-63
2023/06/12 08:40:56;;;;;;;10.85;8.82;;;24.80;91.20;;;;;;5075870;28;20039;-63
2023/06/12 08:43:22;;;;;;;10.50;8.30;;;24.90;90.50;;;;;;5075531;28;20036;-63
2023/06/12 08:45:51;;;;;;;10.33;8.53;;;25.00;89.80;;;;;;5093671;28;20056;-63
2023/06/12 08:48:19;;;;;;;8.93;8.07;;;25.10;87.20;;;;;;5093902;28;20254;-63
2023/06/12 08:50:46;;;;;;;9.70;8.73;;;25.20;89.60;;;;;;5093860;28;20527;-64
2023/06/12 08:53:12;;;;;;;10.75;9.52;;;25.30;88.60;;;;;;5074949;28;20035;-64
2023/06/12 08:55:41;;;;;;;11.77;9.15;;;25.30;84.80;;;;;;5093589;28;20501;-63
2023/06/12 08:58:09;;;;;;;9.77;8.75;;;25.30;87.40;;;;;;5094094;28;20024;-63
2023/06/12 09:00:35;;;;;;;11.50;10.15;;;25.40;88.90;;;;;;5093595;28;20035;-63
2023/06/12 09:03:04;;;;;;;10.43;9.53;;;25.60;86.20;;;;;;5093551;28;20024;-63
2023/06/12 09:05:35;;;;;;;11.18;9.40;;;25.80;85.70;;;;;;5093413;28;20111;-63
2023/06/12 09:08:05;;;;;;;9.70;8.80;;;25.80;81.80;;;;;;5093614;28;20020;-63
2023/06/12 09:10:38;;;;;;;10.70;9.35;;;26.00;83.40;;;;;;5093371;28;20056;-63
2023/06/12 09:13:12;;;;;;;10.63;9.63;;;26.20;85.60;;;;;;5093173;28;20394;-63
2023/06/12 09:15:50;;;;;;;11.55;10.48;;;26.20;85.00;;;;;;5075123;28;20036;-63
2023/06/12 09:18:19;;;;;;;12.00;10.75;;;26.30;83.50;;;;;;5075197;28;20028;-63
2023/06/12 09:20:48;;;;;;;11.98;10.85;;;26.20;80.40;;;;;;5093194;28;20024;-63
2023/06/12 09:23:15;;;;;;;11.77;10.07;;;26.20;79.60;;;;;;5092969;28;20028;-63
2023/06/12 09:25:43;;;;;;;11.63;10.52;;;26.10;80.40;;;;;;5092983;28;20017;-63
2023/06/12 09:28:10;;;;;;;12.57;10.85;;;26.20;80.60;;;;;;5058310;28;20028;-63
2023/06/12 09:30:40;;;;;;;11.55;9.68;;;26.20;79.50;;;;;;5093195;28;20028;-63
2023/06/12 09:33:07;;;;;;;9.90;8.90;;;26.20;78.60;;;;;;5093049;28;20710;-63
2023/06/12 09:35:48;;;;;;;9.90;8.93;;;26.30;79.60;;;;;;5092818;28;20568;-63
2023/06/12 09:38:14;;;;;;;12.52;10.40;;;26.30;79.30;;;;;;5092956;28;20032;-63
2023/06/12 09:40:41;;;;;;;12.43;11.07;;;26.30;77.70;;;;;;5092965;28;20490;-63
2023/06/12 09:43:06;;;;;;;14.13;10.60;;;26.20;79.10;;;;;;5091397;28;20088;-64
2023/06/12 09:45:32;;;;;;;12.77;11.20;;;26.20;78.00;;;;;;5092677;28;20028;-63
2023/06/12 09:47:58;;;;;;;12.80;11.57;;;26.10;78.60;;;;;;5092799;28;20066;-63
2023/06/12 09:50:25;;;;;;;12.53;11.23;;;26.10;79.20;;;;;;5092673;28;20028;-63
2023/06/12 09:52:56;;;;;;;12.57;11.35;;;26.00;80.40;;;;;;5092671;28;20053;-63
2023/06/12 09:55:26;;;;;;;12.43;10.13;;;26.00;80.60;;;;;;5092851;28;20039;-63
2023/06/12 09:57:53;;;;;;;11.35;9.10;;;26.10;79.00;;;;;;5093278;28;20028;-63
2023/06/12 10:00:20;;;;;;;13.85;8.43;;;26.30;78.90;;;;;;5092552;28;20061;-63
2023/06/12 10:03:00;;;;;;;10.27;9.27;;;26.40;77.70;;;;;;5092163;28;20040;-63
2023/06/12 10:05:35;;;;;;;10.70;9.50;;;26.50;76.80;;;;;;5091379;28;20028;-63
2023/06/12 10:08:03;;;;;;;14.30;10.80;;;26.70;76.30;;;;;;5092438;28;20489;-63
2023/06/12 10:10:30;;;;;;;10.60;9.45;;;26.60;74.00;;;;;;5092269;28;20020;-64
2023/06/12 10:12:56;;;;;;;;;;;26.60;74.00;;;;;;5092573;28;20028;-63
2023/06/12 10:15:22;;;;;;;10.32;9.30;;;26.60;76.10;;;;;;5092044;28;19908;-63
2023/06/12 10:17:53;;;;;;;10.10;7.57;;;26.60;74.30;;;;;;5092278;28;20490;-63
2023/06/12 10:20:20;;;;;;;9.30;7.65;;;26.60;76.50;;;;;;5073820;28;20085;-63
2023/06/12 10:22:46;;;;;;;;;;;26.70;76.70;;;;;;5091853;28;20028;-63
2023/06/12 10:25:14;;;;;;;8.52;7.55;;;26.80;73.70;;;;;;5091046;28;20045;-64
2023/06/12 10:27:42;;;;;;;9.20;8.07;;;26.90;74.00;;;;;;5072800;28;20039;-63
2023/06/12 10:30:12;;;;;;;10.10;8.48;;;27.10;74.70;;;;;;5071774;28;20023;-64
2023/06/12 10:32:42;;;;;;;19.02;7.95;;;27.30;73.50;;;;;;5091269;28;20031;-63
2023/06/12 10:35:08;;;;;;;8.30;7.50;;;27.30;70.40;;;;;;5073353;28;20032;-64
2023/06/12 10:37:42;;;;;;;6.68;6.03;;;27.30;70.20;;;;;;5091429;28;20055;-64
2023/06/12 10:40:16;;;;;;;8.25;5.03;;;27.40;71.10;;;;;;5091182;28;20498;-63
2023/06/12 10:42:54;;;;;;;8.50;6.60;;;27.60;70.70;;;;;;5086028;28;20067;-64
2023/06/12 10:45:31;;;;;;;9.25;8.35;;;27.80;71.70;;;;;;5099832;28;20053;-63
2023/06/12 10:48:06;;;;;;;8.60;7.78;;;27.90;72.30;;;;;;5081000;28;20020;-64
2023/06/12 10:50:44;;;;;;;9.80;6.28;;;28.00;68.70;;;;;;5072669;28;20054;-63
2023/06/12 10:53:31;;;;;;;6.53;5.90;;;28.10;71.10;;;;;;5073159;28;20028;-64
2023/06/12 10:56:05;;;;;;;6.93;5.88;;;28.30;74.00;;;;;;5083464;28;20035;-64
2023/06/12 10:58:39;;;;;;;7.72;5.65;;;28.50;70.90;;;;;;5091004;28;20024;-64
2023/06/12 11:01:09;;;;;;;6.80;6.20;;;28.50;68.00;;;;;;5073080;28;20032;-63
2023/06/12 11:03:39;;;;;;;6.22;5.38;;;28.40;67.10;;;;;;5071662;28;20068;-63
2023/06/12 11:06:13;;;;;;;5.45;4.95;;;28.50;67.10;;;;;;5090236;28;20045;-63
2023/06/12 11:08:43;;;;;;;6.70;6.00;;;28.50;65.20;;;;;;5091280;28;20024;-63
2023/06/12 11:11:13;;;;;;;7.68;6.38;;;28.70;64.70;;;;;;5072962;28;20028;-63
2023/06/12 11:13:44;;;;;;;5.90;4.90;;;28.80;64.20;;;;;;5068147;28;20032;-64
2023/06/12 11:16:19;;;;;;;6.72;6.07;;;28.90;66.20;;;;;;5108794;28;20126;-63
2023/06/12 11:18:45;;;;;;;4.72;4.30;;;29.00;65.30;;;;;;5103426;28;20031;-64
2023/06/12 11:21:11;;;;;;;9.52;6.15;;;29.10;66.40;;;;;;5075164;28;20028;-64
2023/06/12 11:23:42;;;;;;;6.68;5.60;;;29.20;65.10;;;;;;5079243;28;20028;-64
2023/06/12 11:26:08;;;;;;;6.90;6.22;;;29.30;65.00;;;;;;5115615;28;20032;-64
2023/06/12 11:28:34;;;;;;;6.80;5.97;;;29.40;66.30;;;;;;5102158;28;20029;-64
2023/06/12 11:31:02;;;;;;;8.35;5.85;;;29.50;64.90;;;;;;5095321;28;20527;-64
2023/06/12 11:33:32;;;;;;;5.72;5.15;;;29.50;63.20;;;;;;5094799;28;20043;-63
2023/06/12 11:36:00;;;;;;;6.65;5.32;;;29.50;63.30;;;;;;5071609;28;20145;-63
2023/06/12 11:38:26;;;;;;;4.55;4.07;;;29.50;62.20;;;;;;5094954;28;20103;-64
2023/06/12 11:40:53;;;;;;;7.55;4.32;;;29.50;62.40;;;;;;5094848;28;20028;-64
2023/06/12 11:43:23;;;;;;;7.47;4.85;;;29.60;63.80;;;;;;5094554;28;20039;-64
2023/06/12 11:45:51;;;;;;;4.80;4.38;;;29.90;62.60;;;;;;5094382;28;20522;-64
2023/06/12 11:48:17;;;;;;;4.90;4.50;;;30.00;60.80;;;;;;5094854;28;20016;-63
2023/06/12 11:50:46;;;;;;;5.25;4.75;;;30.10;61.30;;;;;;5094594;28;20146;-63
2023/06/12 11:53:13;;;;;;;7.63;5.53;;;30.20;61.90;;;;;;5094589;28;20107;-64
2023/06/12 11:55:39;;;;;;;5.10;4.60;;;30.40;59.70;;;;;;5094285;28;20039;-63
2023/06/12 11:58:05;;;;;;;5.07;3.63;;;30.40;59.30;;;;;;5076428;28;20032;-63
2023/06/12 12:00:34;;;;;;;5.43;3.22;;;30.40;60.90;;;;;;5089280;28;20281;-64
2023/06/12 12:03:04;;;;;;;9.30;5.20;;;30.50;60.10;;;;;;5094254;28;20017;-64
2023/06/12 12:05:37;;;;;;;4.82;4.43;;;30.50;59.40;;;;;;5076062;28;20074;-64
2023/06/12 12:08:04;;;;;;;4.90;4.40;;;30.50;61.00;;;;;;5094344;28;20528;-63
2023/06/12 12:10:33;;;;;;;8.55;3.97;;;30.50;58.60;;;;;;5094415;28;20098;-64
2023/06/12 12:13:03;;;;;;;4.60;4.20;;;30.40;58.00;;;;;;5094325;28;20047;-63
2023/06/12 12:15:30;;;;;;;6.22;4.80;;;30.50;60.90;;;;;;5093922;28;20054;-64
2023/06/12 12:17:57;;;;;;;4.80;4.22;;;30.60;58.60;;;;;;5093865;28;20021;-63
2023/06/12 12:20:23;;;;;;;;;;;30.70;58.70;;;;;;5094457;28;20043;-64
2023/06/12 12:22:51;;;;;;;4.60;4.20;;;30.70;56.90;;;;;;5094079;28;19916;-64
2023/06/12 12:25:21;;;;;;;7.60;4.45;;;30.60;57.80;;;;;;5093928;28;20035;-64
2023/06/12 12:27:49;;;;;;;6.30;3.78;;;30.60;58.80;;;;;;5093032;28;20059;-64
2023/06/12 12:30:20;;;;;;;4.30;3.90;;;30.70;61.50;;;;;;5093524;28;20020;-64
2023/06/12 12:32:52;;;;;;;7.30;5.40;;;30.90;60.50;;;;;;5093774;28;20036;-64
2023/06/12 12:35:19;;;;;;;3.63;3.03;;;31.00;58.20;;;;;;5093940;28;20452;-64
2023/06/12 12:37:47;;;;;;;4.53;3.90;;;31.00;58.60;;;;;;5093636;28;20054;-63
2023/06/12 12:40:14;;;;;;;5.22;3.58;;;31.10;59.20;;;;;;5093889;28;20532;-64
2023/06/12 12:42:44;;;;;;;3.88;3.50;;;31.00;57.90;;;;;;5075728;28;20364;-64
2023/06/12 12:45:11;;;;;;;4.30;3.90;;;30.90;57.20;;;;;;5093327;28;20141;-63
2023/06/12 12:47:44;;;;;;;3.50;3.20;;;30.80;58.70;;;;;;5093150;28;20027;-64